Airfield :
LOGIN :

Register | Disclaimer

   EN    FR    IT 

 










Legend :    VFR   Marginal VFR   IFR   Intensive IFR   Very Intensive IFR
Visi :
Ceiling :
>= 8 km
>= 3000ft
5 to 8 km
1000 to 3000 ft
1500m to 5 km
500 to 1000 ft
800 to 1500m
200 to 500 ft
< 800m
< 200 ft
Symbols :   Thunderstorms  Fog  Heavy snow  Heavy precipitations  Wind > 20 kt
SIGMETs :     Misc.  Thunderstorms  Icing  Turbulence  Mountain Waves  Volcanic Ashes






- Airport Elevation : 505 ft
- IATA code : SXB


LFST - Strasbourg

CURRENT METAR :
  • 032000Z AUTO VRB03KT 9999 NCD 17/15 Q1002 TEMPO VRB15G30KT 2000 TSRA BKN035 SCT050CB

EXPIRED METARs :
  • 031930Z AUTO 23002KT 9999 NCD 18/15 Q1002 TEMPO VRB15G30KT 2000 TSRA BKN035 SCT050CB
  • 031900Z AUTO 20006KT 160V230 9999 NCD 19/14 Q1002 TEMPO VRB15G30KT 2000 TSRA BKN035 SCT050CB
  • 031830Z AUTO 12005KT 070V190 9999 NCD 20/14 Q1002 TEMPO VRB15G30KT 2000 TSRA BKN035 SCT050CB
  • 031800Z AUTO 13003KT 070V180 9999 NCD 20/13 Q1002 TEMPO VRB15G30KT 2000 TSRA BKN035 SCT050CB
  • 031730Z AUTO 14006KT 080V170 9999 ///CB 20/14 Q1002 TEMPO VRB15G30KT 2000 TSRA

TAF TAF LFST
Valid from the 03 at 18:00 until the 04 at 18:00 UTC


031700Z 0318/0418 20008KT 9999 FEW050TCU
TEMPO 0318/0418 4000 SHRA FEW050CB
PROB40
TEMPO 0318/0324 VRB15G30KT 2000 TSRA BKN035 SCT050CB
PROB40
TEMPO 0412/0418 22015G35KT 2000 TSRA SCT030CB



MET'MAP, your aeronautical weather chart ! - Copyright ORBIFLY December 2007 - Disclaimer

ORBIFLY MET'MAP TEAM :

Programming & Development : Alexandra Zaïnal
Concept & original design : Baudouin d'Aumeries
Assistance for programming : Marc-Olivier Méhu
Technical & hardware support : Manuel Goepfert

Contact : metmap@orbifly.com




SOURCES & CREDITS :

   NOAA